sensor_id;sensor_type;location;lat;lon;timestamp;pressure;altitude;pressure_sealevel;temperature;humidity
9695;BME280;4690;52.422;13.486;2023-12-04T00:11:48;101900.69;;;-3.12;80.23
9695;BME280;4690;52.422;13.486;2023-12-04T00:14:14;101899.19;;;-3.16;80.48
9695;BME280;4690;52.422;13.486;2023-12-04T00:16:40;101910.13;;;-3.19;80.57
9695;BME280;4690;52.422;13.486;2023-12-04T00:19:05;101901.31;;;-3.21;79.79
9695;BME280;4690;52.422;13.486;2023-12-04T00:21:32;101896.09;;;-3.23;80.23
9695;BME280;4690;52.422;13.486;2023-12-04T00:23:58;101901.53;;;-3.24;80.20
9695;BME280;4690;52.422;13.486;2023-12-04T00:26:23;101899.09;;;-3.27;79.93
9695;BME280;4690;52.422;13.486;2023-12-04T00:28:49;101900.16;;;-3.30;79.92
9695;BME280;4690;52.422;13.486;2023-12-04T00:31:15;101905.84;;;-3.34;79.86
9695;BME280;4690;52.422;13.486;2023-12-04T00:33:41;101909.47;;;-3.35;79.60
9695;BME280;4690;52.422;13.486;2023-12-04T00:36:07;101904.13;;;-3.35;79.82
9695;BME280;4690;52.422;13.486;2023-12-04T00:38:33;101908.84;;;-3.39;80.14
9695;BME280;4690;52.422;13.486;2023-12-04T00:40:58;101907.16;;;-3.40;79.56
9695;BME280;4690;52.422;13.486;2023-12-04T00:43:24;101910.78;;;-3.41;80.03
9695;BME280;4690;52.422;13.486;2023-12-04T00:45:50;101921.63;;;-3.43;80.01
9695;BME280;4690;52.422;13.486;2023-12-04T00:48:16;101921.72;;;-3.44;80.44
9695;BME280;4690;52.422;13.486;2023-12-04T00:50:42;101920.97;;;-3.46;80.63
9695;BME280;4690;52.422;13.486;2023-12-04T00:53:07;101920.00;;;-3.45;80.13
9695;BME280;4690;52.422;13.486;2023-12-04T00:55:33;101914.84;;;-3.48;80.46
9695;BME280;4690;52.422;13.486;2023-12-04T00:57:59;101920.09;;;-3.47;80.70
9695;BME280;4690;52.422;13.486;2023-12-04T01:00:24;101919.38;;;-3.49;80.47
9695;BME280;4690;52.422;13.486;2023-12-04T01:02:51;101925.56;;;-3.48;80.29
9695;BME280;4690;52.422;13.486;2023-12-04T01:05:17;101925.78;;;-3.51;80.29
9695;BME280;4690;52.422;13.486;2023-12-04T01:07:43;101925.88;;;-3.53;80.47
9695;BME280;4690;52.422;13.486;2023-12-04T01:10:09;101919.47;;;-3.50;80.46
9695;BME280;4690;52.422;13.486;2023-12-04T01:12:34;101914.22;;;-3.52;80.29
9695;BME280;4690;52.422;13.486;2023-12-04T01:15:02;101922.13;;;-3.50;80.31
9695;BME280;4690;52.422;13.486;2023-12-04T01:17:28;101911.41;;;-3.50;80.51
9695;BME280;4690;52.422;13.486;2023-12-04T01:19:54;101898.34;;;-3.55;80.45
9695;BME280;4690;52.422;13.486;2023-12-04T01:22:20;101905.66;;;-3.57;80.25
9695;BME280;4690;52.422;13.486;2023-12-04T01:24:46;101893.31;;;-3.59;79.58
9695;BME280;4690;52.422;13.486;2023-12-04T01:27:11;101891.50;;;-3.59;80.15
9695;BME280;4690;52.422;13.486;2023-12-04T01:29:38;101899.63;;;-3.61;79.39
9695;BME280;4690;52.422;13.486;2023-12-04T01:32:04;101888.91;;;-3.61;79.31
9695;BME280;4690;52.422;13.486;2023-12-04T01:34:30;101888.81;;;-3.59;79.79
9695;BME280;4690;52.422;13.486;2023-12-04T01:36:56;101881.00;;;-3.62;79.45
9695;BME280;4690;52.422;13.486;2023-12-04T01:39:21;101877.56;;;-3.64;79.52
9695;BME280;4690;52.422;13.486;2023-12-04T01:41:47;101883.97;;;-3.67;79.58
9695;BME280;4690;52.422;13.486;2023-12-04T01:44:13;101880.44;;;-3.67;78.83
9695;BME280;4690;52.422;13.486;2023-12-04T01:46:39;101878.84;;;-3.70;78.87
9695;BME280;4690;52.422;13.486;2023-12-04T01:49:05;101881.72;;;-3.73;79.42
9695;BME280;4690;52.422;13.486;2023-12-04T01:51:31;101883.66;;;-3.75;79.37
9695;BME280;4690;52.422;13.486;2023-12-04T01:54:00;101878.63;;;-3.79;79.81
9695;BME280;4690;52.422;13.486;2023-12-04T01:56:29;101867.72;;;-3.76;79.51
9695;BME280;4690;52.422;13.486;2023-12-04T01:58:56;101869.41;;;-3.75;79.22
9695;BME280;4690;52.422;13.486;2023-12-04T02:01:23;101865.78;;;-3.74;79.53
9695;BME280;4690;52.422;13.486;2023-12-04T02:03:50;101876.38;;;-3.73;79.70
9695;BME280;4690;52.422;13.486;2023-12-04T02:06:16;101872.63;;;-3.70;80.11
9695;BME280;4690;52.422;13.486;2023-12-04T02:08:43;101875.00;;;-3.66;79.72
9695;BME280;4690;52.422;13.486;2023-12-04T02:11:09;101875.84;;;-3.65;80.05
9695;BME280;4690;52.422;13.486;2023-12-04T02:13:35;101867.06;;;-3.67;80.11
9695;BME280;4690;52.422;13.486;2023-12-04T02:16:05;101865.00;;;-3.64;81.20
9695;BME280;4690;52.422;13.486;2023-12-04T02:18:34;101858.50;;;-3.59;80.94
9695;BME280;4690;52.422;13.486;2023-12-04T02:21:01;101863.50;;;-3.55;81.02
9695;BME280;4690;52.422;13.486;2023-12-04T02:23:27;101847.34;;;-3.53;81.66
9695;BME280;4690;52.422;13.486;2023-12-04T02:26:05;101851.50;;;-3.49;82.04
9695;BME280;4690;52.422;13.486;2023-12-04T02:28:34;101839.84;;;-3.48;82.15
9695;BME280;4690;52.422;13.486;2023-12-04T02:31:04;101845.19;;;-3.48;81.94
9695;BME280;4690;52.422;13.486;2023-12-04T02:33:33;101846.28;;;-3.51;82.17
9695;BME280;4690;52.422;13.486;2023-12-04T02:36:02;101843.81;;;-3.54;82.19
9695;BME280;4690;52.422;13.486;2023-12-04T02:38:30;101840.59;;;-3.46;82.67
9695;BME280;4690;52.422;13.486;2023-12-04T02:40:56;101845.28;;;-3.50;82.05
9695;BME280;4690;52.422;13.486;2023-12-04T02:43:22;101834.25;;;-3.45;82.06
9695;BME280;4690;52.422;13.486;2023-12-04T02:45:47;101836.63;;;-3.41;81.77
9695;BME280;4690;52.422;13.486;2023-12-04T02:48:13;101834.91;;;-3.42;81.57
9695;BME280;4690;52.422;13.486;2023-12-04T02:50:39;101829.00;;;-3.47;81.41
9695;BME280;4690;52.422;13.486;2023-12-04T02:53:05;101832.34;;;-3.56;81.69
9695;BME280;4690;52.422;13.486;2023-12-04T02:55:30;101828.69;;;-3.55;81.42
9695;BME280;4690;52.422;13.486;2023-12-04T02:57:56;101821.41;;;-3.53;81.37
9695;BME280;4690;52.422;13.486;2023-12-04T03:00:22;101824.09;;;-3.53;81.56
9695;BME280;4690;52.422;13.486;2023-12-04T03:02:47;101823.31;;;-3.55;80.97
9695;BME280;4690;52.422;13.486;2023-12-04T03:05:13;101816.25;;;-3.56;80.73
9695;BME280;4690;52.422;13.486;2023-12-04T03:07:39;101811.03;;;-3.57;80.75
9695;BME280;4690;52.422;13.486;2023-12-04T03:10:05;101809.66;;;-3.63;80.58
9695;BME280;4690;52.422;13.486;2023-12-04T03:12:31;101806.84;;;-3.62;80.93
9695;BME280;4690;52.422;13.486;2023-12-04T03:14:57;101805.88;;;-3.61;80.83
9695;BME280;4690;52.422;13.486;2023-12-04T03:17:22;101801.47;;;-3.62;80.56
9695;BME280;4690;52.422;13.486;2023-12-04T03:19:48;101805.88;;;-3.61;80.94
9695;BME280;4690;52.422;13.486;2023-12-04T03:22:14;101799.56;;;-3.59;80.49
9695;BME280;4690;52.422;13.486;2023-12-04T03:24:39;101800.41;;;-3.59;80.62
9695;BME280;4690;52.422;13.486;2023-12-04T03:27:05;101790.47;;;-3.57;81.19
9695;BME280;4690;52.422;13.486;2023-12-04T03:29:31;101792.91;;;-3.54;81.13
9695;BME280;4690;52.422;13.486;2023-12-04T03:31:57;101791.19;;;-3.55;80.97
9695;BME280;4690;52.422;13.486;2023-12-04T03:34:23;101796.34;;;-3.52;81.34
9695;BME280;4690;52.422;13.486;2023-12-04T03:36:48;101794.28;;;-3.48;81.15
9695;BME280;4690;52.422;13.486;2023-12-04T03:39:14;101793.00;;;-3.43;81.24
9695;BME280;4690;52.422;13.486;2023-12-04T03:41:40;101798.22;;;-3.41;81.27
9695;BME280;4690;52.422;13.486;2023-12-04T03:44:05;101793.75;;;-3.41;81.63
9695;BME280;4690;52.422;13.486;2023-12-04T03:46:31;101791.69;;;-3.37;81.64
9695;BME280;4690;52.422;13.486;2023-12-04T03:48:57;101779.91;;;-3.34;82.36
9695;BME280;4690;52.422;13.486;2023-12-04T03:51:23;101778.84;;;-3.32;82.99
9695;BME280;4690;52.422;13.486;2023-12-04T03:53:48;101768.22;;;-3.33;83.09
9695;BME280;4690;52.422;13.486;2023-12-04T03:56:14;101762.31;;;-3.26;82.94
9695;BME280;4690;52.422;13.486;2023-12-04T03:58:40;101770.75;;;-3.19;82.78
9695;BME280;4690;52.422;13.486;2023-12-04T04:01:06;101769.44;;;-3.13;82.94
9695;BME280;4690;52.422;13.486;2023-12-04T04:03:32;101756.03;;;-3.13;83.25
9695;BME280;4690;52.422;13.486;2023-12-04T04:05:57;101752.88;;;-3.07;82.93
9695;BME280;4690;52.422;13.486;2023-12-04T04:08:23;101755.81;;;-3.10;83.33
9695;BME280;4690;52.422;13.486;2023-12-04T04:10:49;101758.25;;;-3.07;82.87
9695;BME280;4690;52.422;13.486;2023-12-04T04:13:15;101750.88;;;-3.04;82.99
9695;BME280;4690;52.422;13.486;2023-12-04T04:15:41;101754.41;;;-3.03;83.00
9695;BME280;4690;52.422;13.486;2023-12-04T04:18:07;101756.09;;;-3.02;82.84
9695;BME280;4690;52.422;13.486;2023-12-04T04:20:32;101761.34;;;-3.01;83.29
9695;BME280;4690;52.422;13.486;2023-12-04T04:22:58;101765.88;;;-3.01;83.29
9695;BME280;4690;52.422;13.486;2023-12-04T04:25:24;101760.59;;;-3.03;82.71
9695;BME280;4690;52.422;13.486;2023-12-04T04:27:50;101770.03;;;-2.97;82.99
9695;BME280;4690;52.422;13.486;2023-12-04T04:30:15;101766.72;;;-3.01;83.20
9695;BME280;4690;52.422;13.486;2023-12-04T04:32:42;101768.31;;;-2.98;82.77
9695;BME280;4690;52.422;13.486;2023-12-04T04:35:08;101766.13;;;-2.93;83.09
9695;BME280;4690;52.422;13.486;2023-12-04T04:37:34;101761.13;;;-2.98;83.31
9695;BME280;4690;52.422;13.486;2023-12-04T04:40:01;101761.88;;;-2.96;83.02
9695;BME280;4690;52.422;13.486;2023-12-04T04:42:27;101760.03;;;-2.95;83.09
9695;BME280;4690;52.422;13.486;2023-12-04T04:44:52;101761.88;;;-2.96;82.88
9695;BME280;4690;52.422;13.486;2023-12-04T04:47:18;101752.00;;;-2.95;82.63
9695;BME280;4690;52.422;13.486;2023-12-04T04:49:44;101754.91;;;-2.98;83.01
9695;BME280;4690;52.422;13.486;2023-12-04T04:52:10;101755.63;;;-2.96;83.15
9695;BME280;4690;52.422;13.486;2023-12-04T04:54:35;101744.56;;;-2.91;83.00
9695;BME280;4690;52.422;13.486;2023-12-04T04:57:01;101749.09;;;-2.92;83.08
9695;BME280;4690;52.422;13.486;2023-12-04T04:59:27;101743.53;;;-3.02;83.29
9695;BME280;4690;52.422;13.486;2023-12-04T05:01:56;101743.53;;;-3.02;83.38
9695;BME280;4690;52.422;13.486;2023-12-04T05:04:22;101746.91;;;-3.11;83.72
9695;BME280;4690;52.422;13.486;2023-12-04T05:06:48;101741.69;;;-3.12;84.36
9695;BME280;4690;52.422;13.486;2023-12-04T05:09:13;101733.56;;;-3.00;83.85
9695;BME280;4690;52.422;13.486;2023-12-04T05:11:39;101734.19;;;-2.96;83.90
9695;BME280;4690;52.422;13.486;2023-12-04T05:14:05;101727.13;;;-2.97;83.90
9695;BME280;4690;52.422;13.486;2023-12-04T05:16:30;101721.75;;;-2.97;84.29
9695;BME280;4690;52.422;13.486;2023-12-04T05:18:56;101734.06;;;-2.95;83.91
9695;BME280;4690;52.422;13.486;2023-12-04T05:21:22;101717.81;;;-3.04;84.14
9695;BME280;4690;52.422;13.486;2023-12-04T05:23:48;101720.06;;;-2.98;84.47
9695;BME280;4690;52.422;13.486;2023-12-04T05:26:13;101712.13;;;-3.00;84.06
9695;BME280;4690;52.422;13.486;2023-12-04T05:28:39;101714.78;;;-3.00;84.74
9695;BME280;4690;52.422;13.486;2023-12-04T05:31:05;101718.00;;;-2.95;84.44
9695;BME280;4690;52.422;13.486;2023-12-04T05:33:31;101715.06;;;-2.91;84.13
9695;BME280;4690;52.422;13.486;2023-12-04T05:35:57;101702.00;;;-2.96;84.18
9695;BME280;4690;52.422;13.486;2023-12-04T05:38:23;101708.13;;;-2.94;84.50
9695;BME280;4690;52.422;13.486;2023-12-04T05:40:48;101699.59;;;-2.88;84.39
9695;BME280;4690;52.422;13.486;2023-12-04T05:43:14;101705.81;;;-2.87;84.54
9695;BME280;4690;52.422;13.486;2023-12-04T05:45:40;101700.91;;;-2.94;84.04
9695;BME280;4690;52.422;13.486;2023-12-04T05:48:06;101700.06;;;-2.94;84.65
9695;BME280;4690;52.422;13.486;2023-12-04T05:50:31;101702.19;;;-2.86;84.86
9695;BME280;4690;52.422;13.486;2023-12-04T05:52:57;101704.91;;;-2.75;84.84
9695;BME280;4690;52.422;13.486;2023-12-04T05:55:24;101698.69;;;-2.76;84.16
9695;BME280;4690;52.422;13.486;2023-12-04T05:57:50;101689.75;;;-2.76;84.33
9695;BME280;4690;52.422;13.486;2023-12-04T06:00:16;101690.50;;;-2.74;84.60
9695;BME280;4690;52.422;13.486;2023-12-04T06:02:43;101692.00;;;-2.70;84.59
9695;BME280;4690;52.422;13.486;2023-12-04T06:05:09;101692.09;;;-2.72;84.61
9695;BME280;4690;52.422;13.486;2023-12-04T06:07:36;101692.84;;;-2.69;84.86
9695;BME280;4690;52.422;13.486;2023-12-04T06:10:03;101700.66;;;-2.66;84.80
9695;BME280;4690;52.422;13.486;2023-12-04T06:12:32;101692.03;;;-2.59;85.04
9695;BME280;4690;52.422;13.486;2023-12-04T06:14:58;101696.06;;;-2.53;84.70
9695;BME280;4690;52.422;13.486;2023-12-04T06:17:25;101688.50;;;-2.48;84.60
9695;BME280;4690;52.422;13.486;2023-12-04T06:19:51;101698.53;;;-2.50;84.59
9695;BME280;4690;52.422;13.486;2023-12-04T06:22:17;101688.03;;;-2.42;84.35
9695;BME280;4690;52.422;13.486;2023-12-04T06:24:46;101683.03;;;-2.35;84.74
9695;BME280;4690;52.422;13.486;2023-12-04T06:27:19;101688.91;;;-2.30;84.24
9695;BME280;4690;52.422;13.486;2023-12-04T06:29:47;101693.53;;;-2.32;83.92
9695;BME280;4690;52.422;13.486;2023-12-04T06:32:13;101696.13;;;-2.31;84.05
9695;BME280;4690;52.422;13.486;2023-12-04T06:34:39;101689.59;;;-2.39;83.96
9695;BME280;4690;52.422;13.486;2023-12-04T06:37:13;101685.47;;;-2.32;83.62
9695;BME280;4690;52.422;13.486;2023-12-04T06:39:40;101688.44;;;-2.24;83.66
9695;BME280;4690;52.422;13.486;2023-12-04T06:42:10;101687.34;;;-2.21;83.52
9695;BME280;4690;52.422;13.486;2023-12-04T06:44:37;101682.47;;;-2.16;83.44
9695;BME280;4690;52.422;13.486;2023-12-04T06:47:04;101683.91;;;-2.12;83.23
9695;BME280;4690;52.422;13.486;2023-12-04T06:49:32;101681.22;;;-2.12;83.00
9695;BME280;4690;52.422;13.486;2023-12-04T06:51:59;101679.38;;;-2.12;83.03
9695;BME280;4690;52.422;13.486;2023-12-04T06:54:26;101676.09;;;-2.15;82.77
9695;BME280;4690;52.422;13.486;2023-12-04T06:56:52;101669.03;;;-2.16;83.02
9695;BME280;4690;52.422;13.486;2023-12-04T06:59:18;101663.91;;;-2.19;83.16
9695;BME280;4690;52.422;13.486;2023-12-04T07:01:44;101661.34;;;-2.21;82.79
9695;BME280;4690;52.422;13.486;2023-12-04T07:04:10;101654.38;;;-2.35;83.15
9695;BME280;4690;52.422;13.486;2023-12-04T07:06:37;101657.19;;;-2.36;83.80
9695;BME280;4690;52.422;13.486;2023-12-04T07:09:04;101656.22;;;-2.24;83.54
9695;BME280;4690;52.422;13.486;2023-12-04T07:11:30;101652.69;;;-2.24;83.42
9695;BME280;4690;52.422;13.486;2023-12-04T07:13:56;101645.22;;;-2.21;83.18
9695;BME280;4690;52.422;13.486;2023-12-04T07:16:21;101641.81;;;-2.12;83.06
9695;BME280;4690;52.422;13.486;2023-12-04T07:18:47;101644.88;;;-2.05;82.85
9695;BME280;4690;52.422;13.486;2023-12-04T07:21:13;101653.53;;;-2.01;82.90
9695;BME280;4690;52.422;13.486;2023-12-04T07:23:38;101650.84;;;-2.01;82.65
9695;BME280;4690;52.422;13.486;2023-12-04T07:26:04;101639.84;;;-1.98;82.72
9695;BME280;4690;52.422;13.486;2023-12-04T07:28:32;101643.88;;;-1.93;82.75
9695;BME280;4690;52.422;13.486;2023-12-04T07:30:58;101649.25;;;-2.04;82.42
9695;BME280;4690;52.422;13.486;2023-12-04T07:33:24;101639.97;;;-2.00;82.33
9695;BME280;4690;52.422;13.486;2023-12-04T07:35:50;101641.28;;;-1.94;82.17
9695;BME280;4690;52.422;13.486;2023-12-04T07:38:17;101638.88;;;-1.97;82.41
9695;BME280;4690;52.422;13.486;2023-12-04T07:40:44;101636.66;;;-1.92;82.77
9695;BME280;4690;52.422;13.486;2023-12-04T07:43:10;101652.44;;;-1.88;82.55
9695;BME280;4690;52.422;13.486;2023-12-04T07:45:35;101644.59;;;-1.79;82.15
9695;BME280;4690;52.422;13.486;2023-12-04T07:48:03;101650.59;;;-1.87;81.90
9695;BME280;4690;52.422;13.486;2023-12-04T07:50:29;101650.81;;;-1.79;82.18
9695;BME280;4690;52.422;13.486;2023-12-04T07:52:55;101647.88;;;-1.76;82.29
9695;BME280;4690;52.422;13.486;2023-12-04T07:55:21;101652.66;;;-1.68;81.81
9695;BME280;4690;52.422;13.486;2023-12-04T07:57:46;101638.69;;;-1.62;81.73
9695;BME280;4690;52.422;13.486;2023-12-04T08:00:13;101637.59;;;-1.60;81.35
9695;BME280;4690;52.422;13.486;2023-12-04T08:02:40;101638.41;;;-1.48;81.55
9695;BME280;4690;52.422;13.486;2023-12-04T08:05:06;101633.03;;;-1.48;81.31
9695;BME280;4690;52.422;13.486;2023-12-04T08:07:32;101626.44;;;-1.55;81.18
9695;BME280;4690;52.422;13.486;2023-12-04T08:09:58;101631.59;;;-1.52;81.31
9695;BME280;4690;52.422;13.486;2023-12-04T08:12:24;101633.91;;;-1.47;81.21
9695;BME280;4690;52.422;13.486;2023-12-04T08:14:49;101633.63;;;-1.44;81.47
9695;BME280;4690;52.422;13.486;2023-12-04T08:17:15;101631.53;;;-1.29;81.48
9695;BME280;4690;52.422;13.486;2023-12-04T08:19:41;101629.28;;;-1.24;80.76
9695;BME280;4690;52.422;13.486;2023-12-04T08:22:07;101634.75;;;-1.15;81.10
9695;BME280;4690;52.422;13.486;2023-12-04T08:24:33;101636.34;;;-1.12;80.48
9695;BME280;4690;52.422;13.486;2023-12-04T08:26:58;101633.50;;;-1.10;80.32
9695;BME280;4690;52.422;13.486;2023-12-04T08:29:24;101627.88;;;-1.07;80.01
9695;BME280;4690;52.422;13.486;2023-12-04T08:31:50;101626.06;;;-1.07;80.17
9695;BME280;4690;52.422;13.486;2023-12-04T08:34:16;101626.19;;;-1.08;80.92
9695;BME280;4690;52.422;13.486;2023-12-04T08:36:41;101628.75;;;-1.07;80.41
9695;BME280;4690;52.422;13.486;2023-12-04T08:39:07;101627.91;;;-1.19;80.99
9695;BME280;4690;52.422;13.486;2023-12-04T08:41:33;101631.03;;;-1.02;80.61
9695;BME280;4690;52.422;13.486;2023-12-04T08:43:58;101626.91;;;-0.85;80.17
9695;BME280;4690;52.422;13.486;2023-12-04T08:46:24;101624.56;;;-0.79;80.28
9695;BME280;4690;52.422;13.486;2023-12-04T08:48:50;101615.88;;;-0.61;79.84
9695;BME280;4690;52.422;13.486;2023-12-04T08:51:17;101615.81;;;-0.71;79.34
9695;BME280;4690;52.422;13.486;2023-12-04T08:53:43;101618.09;;;-0.87;78.65
9695;BME280;4690;52.422;13.486;2023-12-04T08:56:10;101616.69;;;-0.92;79.73
9695;BME280;4690;52.422;13.486;2023-12-04T08:58:36;101612.94;;;-0.79;79.25
9695;BME280;4690;52.422;13.486;2023-12-04T09:01:03;101615.81;;;-0.71;79.40
9695;BME280;4690;52.422;13.486;2023-12-04T09:03:30;101614.13;;;-0.72;78.24
9695;BME280;4690;52.422;13.486;2023-12-04T09:05:57;101614.31;;;-0.64;78.88
9695;BME280;4690;52.422;13.486;2023-12-04T09:08:23;101606.75;;;-0.49;78.32
9695;BME280;4690;52.422;13.486;2023-12-04T09:10:52;101623.81;;;-0.39;77.88
9695;BME280;4690;52.422;13.486;2023-12-04T09:13:17;101628.47;;;-0.41;77.80
9695;BME280;4690;52.422;13.486;2023-12-04T09:15:43;101629.59;;;-0.43;77.98
9695;BME280;4690;52.422;13.486;2023-12-04T09:18:09;101626.81;;;-0.32;77.62
9695;BME280;4690;52.422;13.486;2023-12-04T09:20:34;101619.56;;;-0.32;77.75
9695;BME280;4690;52.422;13.486;2023-12-04T09:23:01;101622.63;;;-0.46;77.18
9695;BME280;4690;52.422;13.486;2023-12-04T09:25:26;101622.28;;;-0.32;77.51
9695;BME280;4690;52.422;13.486;2023-12-04T09:27:53;101615.09;;;-0.21;77.92
9695;BME280;4690;52.422;13.486;2023-12-04T09:30:18;101611.09;;;-0.27;77.55
9695;BME280;4690;52.422;13.486;2023-12-04T09:32:44;101610.34;;;-0.39;77.27
9695;BME280;4690;52.422;13.486;2023-12-04T09:35:10;101609.66;;;-0.31;77.00
9695;BME280;4690;52.422;13.486;2023-12-04T09:37:36;101608.09;;;-0.34;77.45
9695;BME280;4690;52.422;13.486;2023-12-04T09:40:02;101607.84;;;-0.31;77.66
9695;BME280;4690;52.422;13.486;2023-12-04T09:42:30;101606.00;;;-0.30;77.44
9695;BME280;4690;52.422;13.486;2023-12-04T09:44:58;101608.50;;;-0.08;77.20
9695;BME280;4690;52.422;13.486;2023-12-04T09:47:26;101605.66;;;-0.06;76.59
9695;BME280;4690;52.422;13.486;2023-12-04T09:49:53;101610.38;;;0.11;76.37
9695;BME280;4690;52.422;13.486;2023-12-04T09:52:20;101610.38;;;0.11;75.94
9695;BME280;4690;52.422;13.486;2023-12-04T09:54:46;101611.84;;;0.25;75.99
9695;BME280;4690;52.422;13.486;2023-12-04T09:57:12;101603.34;;;0.30;75.99
9695;BME280;4690;52.422;13.486;2023-12-04T09:59:40;101608.50;;;0.42;76.04
9695;BME280;4690;52.422;13.486;2023-12-04T10:02:06;101606.06;;;0.49;75.17
9695;BME280;4690;52.422;13.486;2023-12-04T10:04:34;101593.47;;;0.59;75.46
9695;BME280;4690;52.422;13.486;2023-12-04T10:07:01;101591.47;;;0.61;75.15
9695;BME280;4690;52.422;13.486;2023-12-04T10:09:28;101587.03;;;0.51;74.57
9695;BME280;4690;52.422;13.486;2023-12-04T10:11:56;101588.47;;;0.64;74.94
9695;BME280;4690;52.422;13.486;2023-12-04T10:14:23;101587.91;;;0.61;73.81
9695;BME280;4690;52.422;13.486;2023-12-04T10:16:49;101586.06;;;0.52;75.25
9695;BME280;4690;52.422;13.486;2023-12-04T10:19:27;101584.66;;;0.57;75.41
9695;BME280;4690;52.422;13.486;2023-12-04T10:21:57;101581.09;;;0.47;75.36
9695;BME280;4690;52.422;13.486;2023-12-04T10:24:32;101581.66;;;0.31;75.35
9695;BME280;4690;52.422;13.486;2023-12-04T10:26:59;101581.09;;;0.47;75.70
9695;BME280;4690;52.422;13.486;2023-12-04T10:29:40;101574.72;;;0.48;74.35
9695;BME280;4690;52.422;13.486;2023-12-04T10:32:07;101572.59;;;0.52;75.31
9695;BME280;4690;52.422;13.486;2023-12-04T10:34:33;101570.72;;;0.33;74.76
9695;BME280;4690;52.422;13.486;2023-12-04T10:36:59;101562.66;;;0.42;74.59
9695;BME280;4690;52.422;13.486;2023-12-04T10:39:25;101553.69;;;0.42;75.49
9695;BME280;4690;52.422;13.486;2023-12-04T10:42:03;101536.25;;;0.46;74.41
9695;BME280;4690;52.422;13.486;2023-12-04T10:44:32;101541.66;;;0.46;74.60
9695;BME280;4690;52.422;13.486;2023-12-04T10:47:00;101529.84;;;0.47;75.47
9695;BME280;4690;52.422;13.486;2023-12-04T10:49:27;101528.31;;;0.35;75.76
9695;BME280;4690;52.422;13.486;2023-12-04T10:51:57;101528.59;;;0.32;75.89
9695;BME280;4690;52.422;13.486;2023-12-04T10:54:27;101523.91;;;0.43;75.62
9695;BME280;4690;52.422;13.486;2023-12-04T10:57:00;101523.22;;;0.51;75.47
9695;BME280;4690;52.422;13.486;2023-12-04T10:59:36;101518.22;;;0.56;74.66
9695;BME280;4690;52.422;13.486;2023-12-04T11:02:05;101511.13;;;0.65;74.85
9695;BME280;4690;52.422;13.486;2023-12-04T11:04:36;101512.97;;;0.64;74.36
9695;BME280;4690;52.422;13.486;2023-12-04T11:07:06;101505.16;;;0.61;74.20
9695;BME280;4690;52.422;13.486;2023-12-04T11:09:35;101500.06;;;0.39;74.82
9695;BME280;4690;52.422;13.486;2023-12-04T11:12:08;101504.47;;;0.40;76.06
9695;BME280;4690;52.422;13.486;2023-12-04T11:14:44;101502.06;;;0.37;75.50
9695;BME280;4690;52.422;13.486;2023-12-04T11:17:14;101497.66;;;0.36;76.46
9695;BME280;4690;52.422;13.486;2023-12-04T11:19:55;101491.13;;;0.48;75.75
9695;BME280;4690;52.422;13.486;2023-12-04T11:22:25;101499.63;;;0.63;75.71
9695;BME280;4690;52.422;13.486;2023-12-04T11:24:52;101486.41;;;0.70;74.90
9695;BME280;4690;52.422;13.486;2023-12-04T11:27:19;101485.44;;;0.71;74.54
9695;BME280;4690;52.422;13.486;2023-12-04T11:29:46;101490.22;;;0.86;75.20
9695;BME280;4690;52.422;13.486;2023-12-04T11:32:16;101483.50;;;1.00;75.07
9695;BME280;4690;52.422;13.486;2023-12-04T11:34:55;101483.22;;;1.13;73.19
9695;BME280;4690;52.422;13.486;2023-12-04T11:37:22;101489.44;;;1.14;73.82
9695;BME280;4690;52.422;13.486;2023-12-04T11:39:53;101478.00;;;1.02;72.91
9695;BME280;4690;52.422;13.486;2023-12-04T11:42:24;101478.72;;;0.94;74.15
9695;BME280;4690;52.422;13.486;2023-12-04T11:44:57;101477.69;;;1.05;73.78
9695;BME280;4690;52.422;13.486;2023-12-04T11:47:23;101470.38;;;1.15;74.25
9695;BME280;4690;52.422;13.486;2023-12-04T11:49:49;101470.28;;;1.44;73.27
9695;BME280;4690;52.422;13.486;2023-12-04T11:52:15;101468.25;;;1.56;72.41
9695;BME280;4690;52.422;13.486;2023-12-04T11:54:58;101468.75;;;1.69;72.04
9695;BME280;4690;52.422;13.486;2023-12-04T11:57:26;101465.16;;;1.69;71.52
9695;BME280;4690;52.422;13.486;2023-12-04T12:03:06;101463.47;;;1.68;71.43
9695;BME280;4690;52.422;13.486;2023-12-04T12:05:38;101454.97;;;1.63;71.63
9695;BME280;4690;52.422;13.486;2023-12-04T12:08:08;101459.91;;;1.49;71.88
9695;BME280;4690;52.422;13.486;2023-12-04T12:10:34;101461.28;;;1.53;71.65
9695;BME280;4690;52.422;13.486;2023-12-04T12:13:00;101441.22;;;1.56;71.65
9695;BME280;4690;52.422;13.486;2023-12-04T12:15:27;101445.38;;;1.50;71.88
9695;BME280;4690;52.422;13.486;2023-12-04T12:17:54;101435.13;;;1.54;72.66
9695;BME280;4690;52.422;13.486;2023-12-04T12:20:20;101435.66;;;1.57;72.59
9695;BME280;4690;52.422;13.486;2023-12-04T12:22:48;101442.28;;;1.45;72.34
9695;BME280;4690;52.422;13.486;2023-12-04T12:25:15;101435.09;;;1.36;72.74
9695;BME280;4690;52.422;13.486;2023-12-04T12:27:41;101426.47;;;1.23;73.24
9695;BME280;4690;52.422;13.486;2023-12-04T12:30:08;101424.28;;;1.36;73.02
9695;BME280;4690;52.422;13.486;2023-12-04T12:32:34;101417.16;;;1.35;73.63
9695;BME280;4690;52.422;13.486;2023-12-04T12:35:02;101415.34;;;1.36;73.52
9695;BME280;4690;52.422;13.486;2023-12-04T12:37:28;101420.25;;;1.40;73.32
9695;BME280;4690;52.422;13.486;2023-12-04T12:39:55;101415.44;;;1.44;73.85
9695;BME280;4690;52.422;13.486;2023-12-04T12:42:28;101413.28;;;1.47;73.29
9695;BME280;4690;52.422;13.486;2023-12-04T12:44:55;101416.59;;;1.59;73.31
9695;BME280;4690;52.422;13.486;2023-12-04T12:47:22;101409.03;;;1.63;73.09
9695;BME280;4690;52.422;13.486;2023-12-04T12:49:48;101414.03;;;1.57;73.23
9695;BME280;4690;52.422;13.486;2023-12-04T12:52:14;101413.06;;;1.59;73.31
9695;BME280;4690;52.422;13.486;2023-12-04T12:54:42;101409.75;;;1.65;72.57
9695;BME280;4690;52.422;13.486;2023-12-04T12:57:08;101400.19;;;1.52;73.16
9695;BME280;4690;52.422;13.486;2023-12-04T12:59:35;101413.81;;;1.51;73.49
9695;BME280;4690;52.422;13.486;2023-12-04T13:02:01;101397.84;;;1.57;72.70
9695;BME280;4690;52.422;13.486;2023-12-04T13:04:38;101404.44;;;1.55;72.95
9695;BME280;4690;52.422;13.486;2023-12-04T13:07:04;101401.41;;;1.58;72.79
9695;BME280;4690;52.422;13.486;2023-12-04T13:09:32;101392.41;;;1.40;73.83
9695;BME280;4690;52.422;13.486;2023-12-04T13:11:59;101397.09;;;1.38;74.63
9695;BME280;4690;52.422;13.486;2023-12-04T13:14:25;101395.28;;;1.38;74.54